Time;durP1;ratioP1;P1;durP2;ratioP2;P2;SDS_P1;SDS_P2;PMS_P1;PMS_P2;Temp;Humidity;BMP_temperature;BMP_pressure;BME280_temperature;BME280_humidity;BME280_pressure;Samples;Min_cycle;Max_cycle;Signal;HPM_P1;HPM_P2
2022/05/06 00:00:06;;;;;;;3.90;3.50;;;21.00;48.20;22.30;101590.00;;;;5048511;28;20704;-52
2022/05/06 00:02:31;;;;;;;3.63;3.33;;;20.90;48.20;22.20;101523.00;;;;5046840;28;20178;-53
2022/05/06 00:04:57;;;;;;;3.50;3.20;;;20.90;48.30;22.20;101583.00;;;;5048400;28;20285;-51
2022/05/06 00:07:23;;;;;;;3.50;3.20;;;20.90;48.20;22.20;101579.00;;;;5048108;28;20544;-51
2022/05/06 00:09:48;;;;;;;3.40;3.20;;;20.90;48.20;22.20;101593.00;;;;5048052;28;20216;-52
2022/05/06 00:12:17;;;;;;;3.30;3.00;;;20.90;48.30;22.20;101586.00;;;;5048262;28;20201;-52
2022/05/06 00:14:43;;;;;;;3.77;3.47;;;20.90;48.30;22.10;101593.00;;;;5047651;28;20719;-51
2022/05/06 00:17:09;;;;;;;3.63;3.33;;;20.90;48.40;22.10;101590.00;;;;5048036;28;20189;-52
2022/05/06 00:19:35;;;;;;;3.63;3.33;;;20.80;48.20;22.10;101607.00;;;;5047744;28;20775;-51
2022/05/06 00:22:01;;;;;;;3.37;3.17;;;20.80;48.20;22.10;101604.00;;;;5047724;28;20177;-54
2022/05/06 00:24:28;;;;;;;3.20;3.00;;;20.80;48.30;22.00;101594.00;;;;5047668;28;20395;-53
2022/05/06 00:26:55;;;;;;;3.30;3.10;;;20.80;48.40;22.00;101596.00;;;;5047738;28;20237;-53
2022/05/06 00:29:21;;;;;;;3.50;3.30;;;20.80;48.50;22.00;101592.00;;;;5046602;28;20164;-51
2022/05/06 00:31:47;;;;;;;3.60;3.30;;;20.70;48.40;22.00;101598.00;;;;5047866;28;20174;-52
2022/05/06 00:34:13;;;;;;;3.50;3.20;;;20.70;48.40;22.00;101596.00;;;;5046316;28;20193;-52
2022/05/06 00:36:38;;;;;;;3.60;3.30;;;20.70;48.50;21.90;101592.00;;;;5047426;28;20169;-55
2022/05/06 00:39:04;;;;;;;3.33;3.10;;;20.70;48.60;21.90;101596.00;;;;5047209;28;20239;-52
2022/05/06 00:41:34;;;;;;;3.50;3.20;;;20.70;48.50;21.90;101596.00;;;;5047682;28;20257;-52
2022/05/06 00:44:00;;;;;;;3.40;3.10;;;20.60;48.50;21.90;101594.00;;;;5047931;28;20201;-52
2022/05/06 00:46:26;;;;;;;3.60;3.30;;;20.60;48.50;21.80;101595.00;;;;5047172;28;20666;-52
2022/05/06 00:48:51;;;;;;;3.47;3.10;;;20.60;48.50;21.80;101587.00;;;;5047191;28;20173;-52
2022/05/06 00:51:20;;;;;;;3.67;3.37;;;20.60;48.50;21.80;101591.00;;;;5046698;28;20848;-51
2022/05/06 00:53:47;;;;;;;3.60;3.30;;;20.60;48.50;21.80;101588.00;;;;5047336;28;20201;-50
2022/05/06 00:56:14;;;;;;;3.43;3.13;;;20.50;48.40;21.80;101603.00;;;;5047132;28;20181;-53
2022/05/06 00:58:40;;;;;;;3.27;3.07;;;20.50;48.60;21.70;101596.00;;;;5047694;28;20649;-52
2022/05/06 01:01:07;;;;;;;3.43;3.23;;;20.50;48.60;21.70;101599.00;;;;5046255;28;20182;-51
2022/05/06 01:03:32;;;;;;;3.50;3.20;;;20.50;48.70;21.70;101594.00;;;;5045598;28;20189;-51
2022/05/06 01:05:58;;;;;;;3.50;3.20;;;20.40;48.80;21.70;101595.00;;;;5048614;28;20668;-52
2022/05/06 01:08:24;;;;;;;3.50;3.20;;;20.40;48.70;21.70;101606.00;;;;5047911;28;20197;-51
2022/05/06 01:10:49;;;;;;;3.30;3.10;;;20.40;48.70;21.70;101606.00;;;;5047167;28;20155;-53
2022/05/06 01:13:18;;;;;;;3.23;2.90;;;20.40;48.70;21.70;101615.00;;;;5045725;28;20173;-54
2022/05/06 01:15:43;;;;;;;3.20;3.00;;;20.40;48.70;21.60;101615.00;;;;5047166;28;20240;-53
2022/05/06 01:18:12;;;;;;;3.30;3.10;;;20.40;48.70;21.60;101615.00;;;;5045433;28;20199;-51
2022/05/06 01:20:41;;;;;;;3.23;2.97;;;20.40;48.80;21.60;101620.00;;;;5047221;28;20179;-54
2022/05/06 01:23:07;;;;;;;3.33;3.03;;;20.30;48.70;21.60;101607.00;;;;5045868;28;20165;-52
2022/05/06 01:25:33;;;;;;;3.23;3.03;;;20.30;48.70;21.60;101612.00;;;;5046675;28;20204;-51
2022/05/06 01:28:03;;;;;;;3.40;3.20;;;20.30;48.70;21.50;101617.00;;;;5046742;28;20205;-51
2022/05/06 01:30:38;;;;;;;3.63;3.33;;;20.30;48.80;21.50;101606.00;;;;5046992;28;20159;-51
2022/05/06 01:33:07;;;;;;;3.47;3.17;;;20.30;48.80;21.50;101616.00;;;;5047058;28;20169;-53
2022/05/06 01:35:45;;;;;;;3.60;3.20;;;20.20;49.40;21.50;101612.00;;;;5046703;28;20195;-51
2022/05/06 01:38:34;;;;;;;3.23;2.93;;;20.20;48.80;21.40;101620.00;;;;5045802;28;20184;-54
2022/05/06 01:41:02;;;;;;;3.37;3.07;;;20.20;48.90;21.40;101620.00;;;;5045078;28;20610;-52
2022/05/06 01:43:33;;;;;;;3.30;3.10;;;20.20;48.90;21.40;101607.00;;;;5045851;28;20273;-53
2022/05/06 01:45:58;;;;;;;3.33;3.10;;;20.20;48.90;21.40;101618.00;;;;5045550;28;20184;-52
2022/05/06 01:48:25;;;;;;;3.60;3.17;;;20.10;48.80;21.30;101620.00;;;;5045207;28;20756;-53
2022/05/06 01:50:51;;;;;;;3.50;3.20;;;20.10;48.80;21.30;101624.00;;;;5046774;28;20670;-51
2022/05/06 01:53:17;;;;;;;3.70;3.40;;;20.10;48.80;21.30;101623.00;;;;5045502;28;20186;-53
2022/05/06 01:55:44;;;;;;;3.53;3.23;;;20.10;48.80;21.30;101619.00;;;;5046052;28;20245;-52
2022/05/06 01:58:10;;;;;;;3.27;3.00;;;20.10;48.90;21.10;101632.00;;;;5046667;28;20218;-53
2022/05/06 02:00:36;;;;;;;3.43;3.13;;;20.00;48.80;21.30;101632.00;;;;5046543;28;20198;-52
2022/05/06 02:03:03;;;;;;;3.73;3.43;;;20.00;48.90;21.30;101624.00;;;;5046715;28;20617;-54
2022/05/06 02:05:29;;;;;;;3.57;3.27;;;20.00;48.90;21.30;101636.00;;;;5045997;28;20256;-55
2022/05/06 02:07:54;;;;;;;3.27;3.07;;;19.90;48.90;21.20;101621.00;;;;5046123;28;20163;-54
2022/05/06 02:10:21;;;;;;;3.37;3.07;;;20.00;48.90;21.20;101622.00;;;;5046298;28;20639;-53
2022/05/06 02:12:47;;;;;;;3.37;3.07;;;19.90;48.90;21.20;101625.00;;;;5046337;28;20199;-53
2022/05/06 02:15:18;;;;;;;3.50;3.20;;;19.90;48.90;21.20;101627.00;;;;5046326;28;20671;-52
2022/05/06 02:17:43;;;;;;;3.50;3.20;;;19.90;48.90;21.20;101635.00;;;;5046347;28;20238;-51
2022/05/06 02:20:11;;;;;;;3.53;3.23;;;19.90;48.90;21.20;101630.00;;;;5045762;28;20191;-53
2022/05/06 02:22:37;;;;;;;3.40;3.10;;;19.90;49.10;21.10;101625.00;;;;5046529;28;20192;-52
2022/05/06 02:25:05;;;;;;;3.50;3.20;;;19.90;49.10;21.10;101625.00;;;;5050527;28;20286;-54
2022/05/06 02:27:31;;;;;;;3.37;3.07;;;19.90;49.00;21.10;101624.00;;;;5051712;28;20182;-51
2022/05/06 02:35:28;;;;;;;3.30;3.00;;;19.90;49.00;21.10;101636.00;;;;5050076;28;20234;-52
2022/05/06 02:37:54;;;;;;;3.30;3.00;;;19.80;49.00;21.00;101631.00;;;;5049671;28;20749;-52
2022/05/06 02:40:20;;;;;;;3.47;3.27;;;19.80;49.00;21.00;101634.00;;;;5049607;28;20225;-52
2022/05/06 02:42:45;;;;;;;3.03;2.83;;;19.80;49.10;21.00;101627.00;;;;5049888;28;20181;-52
2022/05/06 02:45:11;;;;;;;3.27;3.00;;;19.80;49.00;21.00;101631.00;;;;5049741;28;20206;-53
2022/05/06 02:47:37;;;;;;;3.30;3.00;;;19.80;49.10;21.00;101630.00;;;;5049745;28;21000;-52
2022/05/06 02:50:04;;;;;;;3.33;3.13;;;19.70;49.00;21.00;101617.00;;;;5048681;28;20176;-52
2022/05/06 02:52:29;;;;;;;4.30;3.10;;;19.70;49.10;21.00;101625.00;;;;5050079;28;20175;-52
2022/05/06 02:54:55;;;;;;;3.27;2.80;;;19.80;49.20;21.00;101630.00;;;;5049777;28;20824;-52
2022/05/06 02:57:21;;;;;;;4.17;3.00;;;19.80;49.20;20.90;101630.00;;;;5049439;28;20186;-52
2022/05/06 02:59:46;;;;;;;3.03;2.83;;;19.70;49.10;20.90;101630.00;;;;5049240;28;20182;-50
2022/05/06 03:02:12;;;;;;;3.50;3.00;;;19.70;49.10;20.90;101636.00;;;;5049559;28;20263;-53
2022/05/06 03:04:38;;;;;;;5.13;3.00;;;19.80;49.10;20.90;101623.00;;;;5049299;28;20252;-54
2022/05/06 03:07:06;;;;;;;5.23;3.03;;;19.70;49.10;20.90;101620.00;;;;5049421;28;20174;-54
2022/05/06 03:09:33;;;;;;;3.93;3.13;;;19.70;49.00;20.90;101618.00;;;;5048599;28;20178;-51
2022/05/06 03:11:59;;;;;;;3.73;2.90;;;19.70;48.90;20.90;101618.00;;;;5049361;28;20249;-52
2022/05/06 03:14:25;;;;;;;3.47;3.17;;;19.70;48.90;20.90;101622.00;;;;5049323;28;20282;-52
2022/05/06 03:16:50;;;;;;;3.20;2.90;;;19.60;48.80;20.80;101559.00;;;;5049047;28;20262;-51
2022/05/06 03:19:16;;;;;;;3.40;3.10;;;19.60;48.80;20.80;101607.00;;;;5049060;28;20181;-53
2022/05/06 03:21:43;;;;;;;3.60;3.00;;;19.50;48.70;20.80;101607.00;;;;5047665;28;20170;-52
2022/05/06 03:24:09;;;;;;;3.60;3.23;;;19.60;48.70;20.80;101619.00;;;;5047495;28;20215;-51
2022/05/06 03:26:34;;;;;;;3.50;3.17;;;19.50;48.70;20.70;101619.00;;;;5047595;28;20762;-52
2022/05/06 03:29:00;;;;;;;3.50;3.10;;;19.50;48.70;20.70;101621.00;;;;5049251;28;20171;-53
2022/05/06 03:31:26;;;;;;;3.30;3.00;;;19.50;48.60;20.70;101623.00;;;;5048825;28;20191;-50
2022/05/06 03:33:54;;;;;;;3.73;3.03;;;19.40;49.20;20.60;101604.00;;;;5047695;28;20187;-51
2022/05/06 03:36:20;;;;;;;3.17;2.93;;;19.40;48.50;20.60;101622.00;;;;5048168;28;20708;-52
2022/05/06 03:38:46;;;;;;;3.20;2.90;;;19.40;48.50;20.60;101628.00;;;;5048651;28;20178;-51
2022/05/06 03:41:12;;;;;;;3.37;2.97;;;19.40;48.50;20.60;101625.00;;;;5048642;28;20182;-53
2022/05/06 03:43:37;;;;;;;3.33;3.03;;;19.40;48.40;20.60;101606.00;;;;5050182;28;20189;-51
2022/05/06 03:46:03;;;;;;;3.40;3.10;;;19.30;48.40;20.60;101621.00;;;;5049662;28;20736;-51
2022/05/06 03:48:29;;;;;;;3.43;2.87;;;19.40;48.50;20.60;101613.00;;;;5048890;28;20164;-53
2022/05/06 03:53:39;;;;;;;3.33;3.13;;;19.30;48.30;20.50;101625.00;;;;5030954;28;20191;-54
2022/05/06 03:56:05;;;;;;;3.70;3.13;;;19.30;48.30;20.50;101623.00;;;;5028400;28;20175;-53
2022/05/06 03:58:32;;;;;;;3.10;2.90;;;19.30;48.30;20.50;101621.00;;;;5028123;28;20228;-54
2022/05/06 04:00:58;;;;;;;4.67;3.27;;;19.30;48.30;20.50;101613.00;;;;5028606;28;20243;-51
2022/05/06 04:03:24;;;;;;;4.60;3.30;;;19.20;48.30;20.50;101619.00;;;;5026685;28;20552;-56
2022/05/06 04:05:49;;;;;;;3.97;2.97;;;19.30;48.40;20.50;101615.00;;;;5027845;28;20182;-54
2022/05/06 04:08:15;;;;;;;4.33;3.00;;;19.20;48.30;20.40;101621.00;;;;5027804;28;20302;-51
2022/05/06 04:10:41;;;;;;;4.80;3.53;;;19.20;48.30;20.40;101631.00;;;;5032311;28;20206;-54
2022/05/06 04:13:07;;;;;;;4.13;3.00;;;19.20;48.30;20.40;101624.00;;;;5044921;28;20171;-53
2022/05/06 04:15:33;;;;;;;3.87;3.23;;;19.20;48.40;20.40;101624.00;;;;5048232;28;20425;-52
2022/05/06 04:18:00;;;;;;;5.20;3.40;;;19.20;48.30;20.40;101629.00;;;;5047628;28;20170;-50
2022/05/06 04:26:01;;;;;;;4.60;3.43;;;19.20;48.50;20.30;101638.00;;;;5047509;28;20229;-52
2022/05/06 04:28:27;;;;;;;4.60;3.30;;;19.20;48.50;20.30;101640.00;;;;5047967;28;20155;-52
2022/05/06 04:30:53;;;;;;;3.57;3.10;;;19.10;48.40;20.30;101643.00;;;;5047136;28;20623;-53
2022/05/06 04:33:20;;;;;;;3.90;3.50;;;19.10;48.40;20.30;101640.00;;;;5047200;28;20178;-51
2022/05/06 04:35:46;;;;;;;6.33;3.20;;;19.10;48.40;20.30;101650.00;;;;5046451;28;20218;-53
2022/05/06 04:38:12;;;;;;;4.27;3.30;;;19.10;48.40;20.20;101645.00;;;;5047013;28;20190;-54
2022/05/06 04:40:40;;;;;;;3.60;3.10;;;19.10;48.40;20.30;101643.00;;;;5048373;28;20272;-54
2022/05/06 04:43:06;;;;;;;5.77;3.17;;;19.10;48.30;20.20;101652.00;;;;5046885;28;20193;-55
2022/05/06 04:45:45;;;;;;;4.07;2.90;;;19.10;48.30;20.20;101657.00;;;;5047336;28;20248;-54
2022/05/06 04:48:11;;;;;;;3.60;3.10;;;19.10;48.30;20.20;101660.00;;;;5046302;28;20165;-55
2022/05/06 04:50:38;;;;;;;3.47;3.10;;;19.00;48.20;20.20;101655.00;;;;5046770;28;20193;-53
2022/05/06 04:53:07;;;;;;;3.63;3.00;;;19.00;48.20;20.20;101661.00;;;;5047015;28;20174;-51
2022/05/06 04:55:44;;;;;;;4.87;2.80;;;19.00;48.20;20.20;101668.00;;;;5047379;28;20777;-51
2022/05/06 04:58:09;;;;;;;4.07;3.20;;;19.00;48.20;20.10;101658.00;;;;5047307;28;20193;-52
2022/05/06 05:00:35;;;;;;;3.70;3.00;;;19.00;48.20;20.10;101684.00;;;;5046363;28;20725;-52
2022/05/06 05:03:01;;;;;;;3.40;3.10;;;19.00;48.20;20.10;101650.00;;;;5047276;28;20186;-52
2022/05/06 05:05:27;;;;;;;2.67;2.47;;;19.00;48.30;20.10;101674.00;;;;5029628;28;20705;-54
2022/05/06 05:07:54;;;;;;;3.63;3.10;;;19.00;48.20;20.10;101677.00;;;;5047453;28;20199;-54
2022/05/06 05:10:21;;;;;;;3.87;3.20;;;18.90;48.00;20.10;101672.00;;;;5051131;28;20174;-51
2022/05/06 05:12:47;;;;;;;3.10;2.83;;;18.90;48.10;20.10;101688.00;;;;5049556;28;20158;-50
2022/05/06 05:15:13;;;;;;;3.67;2.90;;;18.90;48.10;20.10;101682.00;;;;5049683;28;20233;-52
2022/05/06 05:17:38;;;;;;;4.13;3.10;;;18.90;48.10;20.10;101692.00;;;;5051913;28;20436;-51
2022/05/06 05:20:05;;;;;;;3.20;3.00;;;18.90;48.10;20.00;101698.00;;;;5050804;28;20178;-50
2022/05/06 05:22:34;;;;;;;3.40;3.10;;;18.90;48.10;20.00;101689.00;;;;5046730;28;20190;-50
2022/05/06 05:25:00;;;;;;;3.20;2.90;;;18.90;48.20;20.00;101695.00;;;;5046418;28;20206;-53
2022/05/06 05:27:25;;;;;;;4.03;2.90;;;18.90;48.00;20.00;101690.00;;;;5046877;28;20181;-52
2022/05/06 05:29:51;;;;;;;3.60;2.80;;;18.90;48.10;20.00;101694.00;;;;5046854;28;20193;-54
2022/05/06 05:32:18;;;;;;;3.20;3.00;;;18.90;48.10;19.70;101692.00;;;;5046617;28;21129;-52
2022/05/06 05:34:43;;;;;;;3.30;3.00;;;18.80;48.10;20.00;101688.00;;;;5046984;28;20197;-53
2022/05/06 05:37:09;;;;;;;3.03;2.80;;;18.80;48.10;19.90;101701.00;;;;5046434;28;20166;-48
2022/05/06 05:39:35;;;;;;;3.40;3.10;;;18.80;48.10;19.90;101692.00;;;;5047058;28;20166;-50
2022/05/06 05:42:03;;;;;;;3.03;2.73;;;18.80;48.10;19.90;101689.00;;;;5046764;28;20201;-51
2022/05/06 05:49:58;;;;;;;3.43;3.13;;;18.80;48.20;19.90;101706.00;;;;5046427;28;20161;-54
2022/05/06 05:52:24;;;;;;;3.20;2.90;;;18.80;48.10;19.90;101707.00;;;;5046541;28;20178;-55
2022/05/06 05:54:49;;;;;;;3.60;2.77;;;18.80;48.20;19.80;101705.00;;;;5046579;28;20209;-52
2022/05/06 05:57:15;;;;;;;2.80;2.60;;;18.70;48.20;19.80;101696.00;;;;5046666;28;20167;-52
2022/05/06 05:59:41;;;;;;;3.00;2.80;;;18.70;48.20;19.80;101700.00;;;;5049194;28;20521;-51
2022/05/06 06:02:08;;;;;;;3.00;2.80;;;18.70;48.20;19.80;101706.00;;;;5049936;28;20163;-54
2022/05/06 06:04:33;;;;;;;3.10;2.90;;;18.70;48.30;19.80;101697.00;;;;5050318;28;20198;-51
2022/05/06 06:06:59;;;;;;;3.20;2.90;;;18.80;48.30;19.80;101708.00;;;;5050878;28;20177;-51
2022/05/06 06:09:27;;;;;;;3.13;2.83;;;18.80;48.30;19.80;101703.00;;;;5050681;28;20209;-53
2022/05/06 06:11:52;;;;;;;2.90;2.70;;;18.70;48.20;19.80;101708.00;;;;5049355;28;20170;-56
2022/05/06 06:14:18;;;;;;;4.10;2.70;;;18.70;48.30;19.80;101708.00;;;;5050237;28;20200;-52
2022/05/06 06:16:44;;;;;;;3.13;2.83;;;18.70;48.30;19.80;101704.00;;;;5050248;28;20179;-54
2022/05/06 06:19:10;;;;;;;3.00;2.80;;;18.70;48.30;19.80;101703.00;;;;5049635;28;20179;-51
2022/05/06 06:21:36;;;;;;;3.00;2.80;;;18.70;48.40;19.70;101711.00;;;;5049407;28;20178;-51
2022/05/06 06:24:01;;;;;;;3.10;2.80;;;18.70;48.40;19.70;101702.00;;;;5051784;28;20789;-51
2022/05/06 06:26:27;;;;;;;2.90;2.70;;;18.70;48.40;19.70;101702.00;;;;5050282;28;20190;-50
2022/05/06 06:28:54;;;;;;;3.30;3.00;;;18.60;48.40;19.70;101710.00;;;;5049320;28;20770;-51
2022/05/06 06:31:20;;;;;;;3.43;3.03;;;18.70;48.50;19.70;101714.00;;;;5049668;28;20212;-52
2022/05/06 06:33:46;;;;;;;3.20;2.90;;;18.70;48.50;19.70;101704.00;;;;5049662;28;20268;-51
2022/05/06 06:36:12;;;;;;;3.43;3.07;;;18.60;48.50;19.70;101706.00;;;;5050283;28;20836;-52
2022/05/06 06:38:37;;;;;;;3.07;2.87;;;18.60;48.50;19.70;101718.00;;;;5049761;28;20175;-53
2022/05/06 06:41:04;;;;;;;2.90;2.70;;;18.60;48.60;19.70;101713.00;;;;5049444;28;20526;-53
2022/05/06 06:43:29;;;;;;;3.43;3.13;;;18.60;48.80;19.70;101715.00;;;;5048356;28;20253;-54
2022/05/06 06:45:56;;;;;;;3.33;3.03;;;18.60;49.00;19.70;101716.00;;;;5049357;28;20225;-50
2022/05/06 06:48:24;;;;;;;3.20;2.90;;;18.60;49.10;19.70;101714.00;;;;5049572;28;20204;-52
2022/05/06 06:50:50;;;;;;;3.07;2.87;;;18.50;49.00;19.60;101723.00;;;;5049135;28;20603;-54
2022/05/06 06:53:16;;;;;;;3.20;2.90;;;18.60;49.00;19.60;101723.00;;;;5049520;28;20215;-52
2022/05/06 06:55:42;;;;;;;3.27;3.03;;;18.50;48.90;19.60;101729.00;;;;5048952;28;20674;-52
2022/05/06 06:58:07;;;;;;;3.23;2.93;;;18.50;49.00;19.60;101740.00;;;;5049136;28;20181;-54
2022/05/06 07:00:33;;;;;;;3.20;2.90;;;18.50;49.00;19.60;101645.00;;;;5048967;28;20660;-51
2022/05/06 07:02:59;;;;;;;3.30;3.00;;;18.50;49.00;19.60;101724.00;;;;5048917;28;20233;-51
2022/05/06 07:05:25;;;;;;;3.00;2.80;;;18.50;49.20;19.60;101736.00;;;;5048187;28;20244;-53
2022/05/06 07:13:19;;;;;;;3.00;2.80;;;18.50;49.40;19.60;101726.00;;;;5048831;28;20160;-53
2022/05/06 07:15:45;;;;;;;3.20;2.90;;;18.50;49.60;19.60;101726.00;;;;5048595;28;20199;-51
2022/05/06 07:18:11;;;;;;;2.90;2.70;;;18.50;49.60;19.60;101720.00;;;;5048357;28;20171;-51
2022/05/06 07:20:36;;;;;;;3.10;2.90;;;18.50;49.60;19.60;101735.00;;;;5049170;28;20831;-51
2022/05/06 07:23:03;;;;;;;3.13;2.90;;;18.50;49.70;19.60;101721.00;;;;5048808;28;20277;-55
2022/05/06 07:25:30;;;;;;;3.17;2.97;;;18.50;49.80;19.60;101734.00;;;;5049033;28;20231;-52
2022/05/06 07:27:55;;;;;;;3.40;3.13;;;18.50;49.90;19.60;101734.00;;;;5047363;28;20173;-53
2022/05/06 07:30:21;;;;;;;3.40;3.10;;;18.50;50.00;19.60;101737.00;;;;5048525;28;20170;-54
2022/05/06 07:32:48;;;;;;;3.37;3.07;;;18.50;50.20;19.60;101736.00;;;;5048406;28;20180;-51
2022/05/06 07:35:13;;;;;;;3.23;2.93;;;18.50;50.10;19.60;101739.00;;;;5048440;28;20213;-51
2022/05/06 07:37:39;;;;;;;3.10;2.90;;;18.50;50.10;19.60;101739.00;;;;5048539;28;20637;-52
2022/05/06 07:40:06;;;;;;;3.30;3.00;;;18.50;50.20;19.60;101742.00;;;;5048053;28;20180;-53
2022/05/06 07:42:32;;;;;;;3.37;3.10;;;18.50;50.30;19.60;101728.00;;;;5048032;28;20177;-51
2022/05/06 07:44:58;;;;;;;3.40;3.10;;;18.50;50.30;19.60;101725.00;;;;5048130;28;20288;-52
2022/05/06 07:47:24;;;;;;;3.60;3.30;;;18.50;50.30;19.60;101733.00;;;;5048270;28;20280;-53
2022/05/06 07:49:50;;;;;;;3.70;3.00;;;18.50;50.40;19.60;101730.00;;;;5048003;28;20637;-51
2022/05/06 07:52:15;;;;;;;2.97;2.77;;;18.50;50.60;19.60;101726.00;;;;5047701;28;20172;-52
2022/05/06 07:54:41;;;;;;;3.10;2.80;;;18.40;50.70;19.50;101734.00;;;;5047391;28;20187;-51
2022/05/06 07:57:07;;;;;;;3.37;3.07;;;18.40;50.80;19.50;101722.00;;;;5044291;28;20224;-55
2022/05/06 07:59:32;;;;;;;3.27;2.97;;;18.40;51.10;19.60;101724.00;;;;4974105;28;20205;-52
2022/05/06 08:04:48;;;;;;;3.97;3.60;;;18.40;51.60;19.50;101732.00;;;;5047364;28;20761;-50
2022/05/06 08:07:14;;;;;;;4.10;3.37;;;18.50;52.10;19.50;101724.00;;;;5047440;28;20185;-52
2022/05/06 08:09:40;;;;;;;3.50;3.20;;;18.40;51.20;19.50;101712.00;;;;5047594;28;20169;-52
2022/05/06 08:12:06;;;;;;;3.63;3.33;;;18.50;51.20;19.50;101711.00;;;;5047687;28;20682;-51
2022/05/06 08:14:32;;;;;;;4.23;3.20;;;18.50;51.40;19.50;101725.00;;;;5047804;28;20193;-53
2022/05/06 08:16:58;;;;;;;5.63;3.40;;;18.50;51.90;19.60;101722.00;;;;5047562;28;20228;-54
2022/05/06 08:19:24;;;;;;;5.70;3.50;;;18.50;52.00;19.60;101733.00;;;;5047082;28;20577;-50
2022/05/06 08:21:50;;;;;;;7.77;3.27;;;18.50;52.10;19.60;101732.00;;;;5046723;28;20170;-52
2022/05/06 08:24:16;;;;;;;4.03;3.33;;;18.50;52.00;19.60;101725.00;;;;5047843;28;20247;-53
2022/05/06 08:26:42;;;;;;;4.47;3.47;;;18.50;52.10;19.60;101722.00;;;;5047611;28;20196;-55
2022/05/06 08:29:07;;;;;;;6.00;3.40;;;18.60;52.30;19.60;101721.00;;;;5040855;28;20170;-54
2022/05/06 08:31:37;;;;;;;5.17;3.07;;;18.50;52.30;19.60;101719.00;;;;5047449;28;20192;-49
2022/05/06 08:34:10;;;;;;;4.37;3.07;;;18.50;52.30;19.60;101722.00;;;;5047301;28;20670;-50
2022/05/06 08:36:43;;;;;;;4.03;3.60;;;18.50;52.50;19.60;101720.00;;;;5047459;28;20166;-51
2022/05/06 08:39:10;;;;;;;3.47;3.13;;;18.50;52.70;19.60;101714.00;;;;5047289;28;20241;-52
2022/05/06 08:41:36;;;;;;;4.73;3.50;;;18.60;52.80;19.60;101718.00;;;;5046425;28;20181;-51
2022/05/06 08:52:30;;;;;;;4.30;3.70;;;18.50;52.90;19.60;101716.00;;;;5045369;28;20523;-55
2022/05/06 08:54:56;;;;;;;3.90;3.50;;;18.60;53.00;19.60;101710.00;;;;5045415;28;20278;-54
2022/05/06 08:57:22;;;;;;;3.67;3.33;;;18.60;53.00;19.60;101719.00;;;;5049088;28;20168;-53
2022/05/06 08:59:52;;;;;;;3.93;3.33;;;18.60;53.20;19.60;101705.00;;;;5046283;28;20227;-51
2022/05/06 09:02:18;;;;;;;3.60;3.30;;;18.60;53.30;19.70;101712.00;;;;5047066;28;20177;-50
2022/05/06 09:04:43;;;;;;;5.80;3.60;;;18.60;53.30;19.60;101721.00;;;;5047634;28;20189;-50
2022/05/06 09:07:19;;;;;;;3.67;3.20;;;18.70;53.50;19.70;101713.00;;;;5047655;28;20669;-51
2022/05/06 09:10:10;;;;;;;3.63;3.23;;;18.70;53.50;19.40;101708.00;;;;5047215;28;20165;-52
2022/05/06 09:12:42;;;;;;;4.47;3.40;;;18.70;53.50;19.70;101707.00;;;;5047884;28;20185;-51
2022/05/06 09:17:53;;;;;;;5.83;3.37;;;18.70;53.50;19.70;101703.00;;;;5045780;28;20261;-51
2022/05/06 09:20:20;;;;;;;4.63;3.30;;;18.70;53.60;19.50;101690.00;;;;5045508;28;20182;-54
2022/05/06 09:22:47;;;;;;;3.87;3.47;;;18.70;53.50;19.70;101705.00;;;;5045850;28;20173;-53
2022/05/06 09:25:38;;;;;;;3.93;3.40;;;18.70;53.60;19.70;101703.00;;;;5045993;28;20208;-51
2022/05/06 09:28:04;;;;;;;4.17;3.20;;;18.80;53.80;19.70;101700.00;;;;5046155;28;20202;-52
2022/05/06 09:30:30;;;;;;;3.53;3.23;;;18.80;53.70;19.70;101701.00;;;;5046084;28;20643;-52
2022/05/06 09:32:56;;;;;;;3.40;3.10;;;18.80;53.80;19.80;101710.00;;;;5047944;28;20172;-53
2022/05/06 09:35:27;;;;;;;3.53;3.23;;;18.80;53.80;19.80;101705.00;;;;5050274;28;20189;-50
2022/05/06 09:37:52;;;;;;;3.80;3.13;;;18.80;54.00;19.80;101708.00;;;;5050570;28;20791;-53
2022/05/06 09:40:27;;;;;;;3.93;3.20;;;18.80;54.00;19.80;101705.00;;;;5051167;28;20178;-51
2022/05/06 09:42:59;;;;;;;3.87;3.30;;;18.90;54.20;19.80;101709.00;;;;5051171;28;20185;-52
2022/05/06 09:45:38;;;;;;;4.30;3.57;;;18.90;54.10;19.80;101697.00;;;;5050963;28;20193;-54
2022/05/06 09:48:06;;;;;;;3.53;3.23;;;18.90;54.40;19.80;101705.00;;;;5048030;28;20162;-52
2022/05/06 09:50:38;;;;;;;3.77;3.20;;;18.90;54.50;19.80;101693.00;;;;5050832;28;20241;-52
2022/05/06 09:53:06;;;;;;;3.93;3.10;;;18.90;54.50;19.90;101696.00;;;;5051079;28;20163;-54
2022/05/06 09:55:31;;;;;;;3.50;3.20;;;18.90;54.60;19.90;101689.00;;;;5050509;28;20200;-55
2022/05/06 09:57:59;;;;;;;3.50;3.20;;;19.00;54.60;19.90;101697.00;;;;5050206;28;20257;-51
2022/05/06 10:00:25;;;;;;;3.23;3.00;;;19.00;54.70;19.90;101695.00;;;;5053418;28;20563;-51
2022/05/06 10:02:51;;;;;;;4.60;3.10;;;19.00;54.80;19.90;101688.00;;;;5053697;28;20673;-52
2022/05/06 10:05:17;;;;;;;3.40;3.10;;;19.10;54.90;19.90;101689.00;;;;5047943;28;20198;-51
2022/05/06 10:07:43;;;;;;;3.50;3.20;;;19.10;55.20;20.00;101681.00;;;;5049888;28;20166;-51
2022/05/06 10:10:17;;;;;;;3.47;3.17;;;19.10;55.20;20.00;101683.00;;;;5049489;28;20166;-50
2022/05/06 10:12:52;;;;;;;3.43;3.13;;;19.10;55.30;20.00;101664.00;;;;5049031;28;20151;-51
2022/05/06 10:15:23;;;;;;;3.50;3.20;;;19.10;55.20;20.00;101682.00;;;;5048568;28;20279;-52
2022/05/06 10:18:01;;;;;;;3.80;2.90;;;19.10;55.10;20.00;101674.00;;;;5048190;28;20641;-52
2022/05/06 10:20:36;;;;;;;5.17;3.50;;;19.20;55.60;20.10;101682.00;;;;4935475;28;20167;-52
2022/05/06 10:23:07;;;;;;;6.03;3.10;;;19.20;55.20;20.10;101687.00;;;;5049181;28;20201;-51
2022/05/06 10:25:42;;;;;;;9.03;3.30;;;19.30;55.40;20.10;101682.00;;;;5047693;28;20221;-52
2022/05/06 10:34:14;;;;;;;4.83;3.40;;;19.30;55.50;20.20;101672.00;;;;5050270;28;20205;-53
2022/05/06 10:36:42;;;;;;;7.40;3.40;;;19.40;55.80;20.20;101662.00;;;;5050108;28;20311;-50
2022/05/06 10:39:36;;;;;;;5.43;3.40;;;19.40;56.00;20.30;101652.00;;;;5050699;28;20186;-50
2022/05/06 10:42:12;;;;;;;12.00;3.77;;;19.40;56.20;20.20;101658.00;;;;5051321;28;20193;-52
2022/05/06 10:44:44;;;;;;;4.90;3.20;;;19.50;56.00;20.30;101672.00;;;;5048863;28;20224;-52
2022/05/06 10:47:13;;;;;;;5.80;3.57;;;19.50;56.20;20.30;101656.00;;;;5051251;28;20608;-50
2022/05/06 10:49:38;;;;;;;9.50;3.77;;;19.50;56.30;20.30;101657.00;;;;5051428;28;20200;-52
2022/05/06 10:52:17;;;;;;;8.70;3.10;;;19.50;56.10;20.40;101657.00;;;;5051240;28;20166;-52
2022/05/06 10:54:48;;;;;;;3.83;3.40;;;19.60;56.40;20.40;101659.00;;;;5050964;28;20253;-54
2022/05/06 10:57:18;;;;;;;5.23;3.03;;;19.60;56.20;20.40;101655.00;;;;5049786;28;20170;-51
2022/05/06 11:00:00;;;;;;;7.27;3.37;;;19.60;56.20;20.40;101651.00;;;;5050657;28;20241;-52
2022/05/06 11:02:34;;;;;;;7.27;3.47;;;19.70;56.30;20.50;101654.00;;;;5050703;28;20261;-52
2022/05/06 11:05:02;;;;;;;15.83;4.00;;;19.70;56.60;20.50;101645.00;;;;5051213;28;20243;-52
2022/05/06 11:07:29;;;;;;;7.50;3.50;;;19.70;56.50;20.50;101639.00;;;;5059375;28;20205;-53
2022/05/06 11:09:55;;;;;;;9.87;3.57;;;19.70;56.70;20.50;101645.00;;;;5055379;28;20186;-52
2022/05/06 11:12:38;;;;;;;5.57;3.40;;;19.70;56.60;20.60;101642.00;;;;5049289;28;20155;-55
2022/05/06 11:15:06;;;;;;;6.90;3.67;;;19.80;56.60;20.60;101648.00;;;;5051154;28;20194;-53
2022/05/06 11:17:32;;;;;;;6.37;3.23;;;19.80;56.60;20.60;101642.00;;;;5048660;28;20281;-50
2022/05/06 11:20:03;;;;;;;6.03;3.40;;;19.80;56.60;20.60;101635.00;;;;4937201;28;20175;-54
2022/05/06 11:22:33;;;;;;;5.07;3.10;;;19.80;56.60;20.70;101635.00;;;;5050703;28;20161;-53
2022/05/06 11:24:59;;;;;;;4.70;3.20;;;19.80;56.60;20.70;101615.00;;;;5049277;28;20194;-51
2022/05/06 11:27:25;;;;;;;6.20;3.73;;;19.90;56.50;20.70;101642.00;;;;5049592;28;20286;-51
2022/05/06 11:29:57;;;;;;;6.93;3.33;;;19.90;57.00;20.80;101641.00;;;;5050370;28;20155;-50
2022/05/06 11:32:27;;;;;;;5.17;3.23;;;20.00;56.30;20.80;101632.00;;;;5050326;28;20165;-50